Yellow Mule RAWS (NWS)

Jump to table bottom
Date/Time Wind Direction Wind Speed knots Wind Gust knots RH % Accumulated Precip Inches Air Temp Fahrenheit
2022-07-06 01:04 SE 3 4 70 9.23 51
2022-07-06 00:04 SE 3 5 72 9.23 51
2022-07-05 23:04 0 4 73 9.23 50
2022-07-05 22:04 ENE 1 6 71 9.23 51
2022-07-05 21:04 ENE 3 4 60 9.23 52
2022-07-05 20:04 NNE 3 7 52 9.23 58
2022-07-05 19:04 SE 3 10 46 9.23 61
2022-07-05 18:04 W 3 8 51 9.23 58
2022-07-05 17:04 N 2 9 49 9.23 61
2022-07-05 16:04 E 5 18 50 9.23 60
2022-07-05 15:04 SSW 11 19 49 9.23 58
2022-07-05 14:04 SSW 10 17 50 9.23 59
2022-07-05 13:04 SW 12 22 50 9.23 57
2022-07-05 12:04 SW 14 25 47 9.23 58
2022-07-05 11:04 SW 12 26 42 9.23 59
2022-07-05 10:04 SSW 15 23 38 9.23 59
2022-07-05 09:04 SSW 12 17 44 9.23 57
2022-07-05 08:04 SSW 5 8 58 9.23 53
2022-07-05 07:04 SW 7 8 54 9.23 50
2022-07-05 06:04 SE 2 4 78 9.23 45
2022-07-05 05:04 NW 2 5 79 9.23 46
2022-07-05 04:04 W 3 4 65 9.23 48
2022-07-05 03:04 WNW 1 4 88 9.23 45
2022-07-05 02:04 WNW 1 4 68 9.23 47
2022-07-05 01:04 N 3 7 75 9.23 48
2022-07-05 00:04 NNW 3 10 75 9.23 47
2022-07-04 23:04 WSW 9 11 47 9.23 51
2022-07-04 22:04 SSW 8 14 37 9.23 54
2022-07-04 21:04 S 11 22 35 9.23 55
2022-07-04 20:04 S 12 23 35 9.23 56
2022-07-04 19:04 SSE 17 36 33 9.23 57
2022-07-04 18:04 S 17 26 35 9.23 58
2022-07-04 17:04 SSE 15 24 37 9.23 60
2022-07-04 16:04 SSE 10 26 38 9.23 59
2022-07-04 15:04 S 16 30 39 9.23 57
2022-07-04 14:04 S 17 30 41 9.23 58
2022-07-04 13:04 S 10 23 45 9.23 56
2022-07-04 12:04 S 11 17 44 9.23 58
2022-07-04 11:04 S 3 6 56 9.23 61
2022-07-04 10:04 S 3 7 54 9.23 61
2022-07-04 09:04 SSE 4 10 78 9.23 51
2022-07-04 08:04 S 6 12 83 9.23 46
2022-07-04 07:04 SSE 8 10 97 9.23 42
2022-07-04 06:04 S 5 10 100 9.23 40
2022-07-04 05:04 S 4 30 92 9.23 41
2022-07-04 04:04 W 10 15 87 9.14 43
2022-07-04 03:04 W 7 19 83 9.12 43
2022-07-04 02:04 E 4 13 95 9.01 43
2022-07-04 01:04 ENE 2 8 87 9.01 43
2022-07-04 00:04 WNW 5 9 90 9.01 44